sensor_id;sensor_type;location;lat;lon;timestamp;P1;durP1;ratioP1;P2;durP2;ratioP2
9906;SDS011;4992;51.628;6.664;2023-04-01T00:00:51;4.93;;;1.17;;
9906;SDS011;4992;51.628;6.664;2023-04-01T00:03:18;2.27;;;1.10;;
9906;SDS011;4992;51.628;6.664;2023-04-01T00:05:44;4.87;;;1.10;;
9906;SDS011;4992;51.628;6.664;2023-04-01T00:08:10;3.87;;;1.40;;
9906;SDS011;4992;51.628;6.664;2023-04-01T00:10:36;5.70;;;1.40;;
9906;SDS011;4992;51.628;6.664;2023-04-01T00:13:02;3.13;;;1.73;;
9906;SDS011;4992;51.628;6.664;2023-04-01T00:15:29;3.20;;;1.60;;
9906;SDS011;4992;51.628;6.664;2023-04-01T00:17:55;4.70;;;1.67;;
9906;SDS011;4992;51.628;6.664;2023-04-01T00:20:21;9.70;;;1.90;;
9906;SDS011;4992;51.628;6.664;2023-04-01T00:22:47;4.80;;;1.57;;
9906;SDS011;4992;51.628;6.664;2023-04-01T00:25:14;3.80;;;1.53;;
9906;SDS011;4992;51.628;6.664;2023-04-01T00:27:40;4.17;;;1.63;;
9906;SDS011;4992;51.628;6.664;2023-04-01T00:30:06;5.50;;;2.23;;
9906;SDS011;4992;51.628;6.664;2023-04-01T00:32:33;4.10;;;2.03;;
9906;SDS011;4992;51.628;6.664;2023-04-01T00:34:59;5.20;;;2.30;;
9906;SDS011;4992;51.628;6.664;2023-04-01T00:37:26;4.17;;;2.17;;
9906;SDS011;4992;51.628;6.664;2023-04-01T00:39:52;6.60;;;2.00;;
9906;SDS011;4992;51.628;6.664;2023-04-01T00:42:18;3.47;;;1.67;;
9906;SDS011;4992;51.628;6.664;2023-04-01T00:44:50;3.90;;;1.40;;
9906;SDS011;4992;51.628;6.664;2023-04-01T00:47:17;5.83;;;1.50;;
9906;SDS011;4992;51.628;6.664;2023-04-01T00:49:44;2.80;;;1.20;;
9906;SDS011;4992;51.628;6.664;2023-04-01T00:52:11;3.50;;;1.40;;
9906;SDS011;4992;51.628;6.664;2023-04-01T00:54:38;4.87;;;1.40;;
9906;SDS011;4992;51.628;6.664;2023-04-01T00:59:34;4.53;;;1.50;;
9906;SDS011;4992;51.628;6.664;2023-04-01T01:02:02;3.23;;;1.50;;
9906;SDS011;4992;51.628;6.664;2023-04-01T01:04:30;3.83;;;1.87;;
9906;SDS011;4992;51.628;6.664;2023-04-01T01:12:05;2.87;;;1.37;;
9906;SDS011;4992;51.628;6.664;2023-04-01T01:17:02;3.90;;;1.20;;
9906;SDS011;4992;51.628;6.664;2023-04-01T01:22:02;1.53;;;1.20;;
9906;SDS011;4992;51.628;6.664;2023-04-01T01:24:51;2.97;;;1.80;;
9906;SDS011;4992;51.628;6.664;2023-04-01T01:27:19;2.87;;;1.40;;
9906;SDS011;4992;51.628;6.664;2023-04-01T01:37:49;2.77;;;1.33;;
9906;SDS011;4992;51.628;6.664;2023-04-01T01:40:16;1.97;;;1.40;;
9906;SDS011;4992;51.628;6.664;2023-04-01T01:42:46;2.83;;;1.37;;
9906;SDS011;4992;51.628;6.664;2023-04-01T01:45:13;3.17;;;1.80;;
9906;SDS011;4992;51.628;6.664;2023-04-01T01:47:41;2.40;;;1.90;;
9906;SDS011;4992;51.628;6.664;2023-04-01T01:50:07;1.83;;;1.40;;
9906;SDS011;4992;51.628;6.664;2023-04-01T01:52:33;2.30;;;1.37;;
9906;SDS011;4992;51.628;6.664;2023-04-01T01:54:59;3.13;;;1.80;;
9906;SDS011;4992;51.628;6.664;2023-04-01T01:57:26;1.97;;;1.40;;
9906;SDS011;4992;51.628;6.664;2023-04-01T01:59:55;2.93;;;1.43;;
9906;SDS011;4992;51.628;6.664;2023-04-01T02:02:22;1.87;;;1.33;;
9906;SDS011;4992;51.628;6.664;2023-04-01T02:04:49;6.47;;;2.03;;
9906;SDS011;4992;51.628;6.664;2023-04-01T02:07:18;6.63;;;2.10;;
9906;SDS011;4992;51.628;6.664;2023-04-01T02:09:45;2.13;;;1.80;;
9906;SDS011;4992;51.628;6.664;2023-04-01T02:12:12;3.17;;;1.90;;
9906;SDS011;4992;51.628;6.664;2023-04-01T02:14:43;4.60;;;2.13;;
9906;SDS011;4992;51.628;6.664;2023-04-01T02:17:18;3.10;;;2.37;;
9906;SDS011;4992;51.628;6.664;2023-04-01T02:19:47;4.20;;;2.13;;
9906;SDS011;4992;51.628;6.664;2023-04-01T02:22:14;5.33;;;1.57;;
9906;SDS011;4992;51.628;6.664;2023-04-01T02:24:42;2.63;;;1.20;;
9906;SDS011;4992;51.628;6.664;2023-04-01T02:27:10;2.00;;;1.47;;
9906;SDS011;4992;51.628;6.664;2023-04-01T02:29:36;3.13;;;0.80;;
9906;SDS011;4992;51.628;6.664;2023-04-01T02:32:03;2.23;;;0.87;;
9906;SDS011;4992;51.628;6.664;2023-04-01T02:34:30;2.07;;;0.80;;
9906;SDS011;4992;51.628;6.664;2023-04-01T02:36:56;2.37;;;0.70;;
9906;SDS011;4992;51.628;6.664;2023-04-01T02:39:22;1.23;;;1.13;;
9906;SDS011;4992;51.628;6.664;2023-04-01T02:41:50;0.80;;;0.60;;
9906;SDS011;4992;51.628;6.664;2023-04-01T02:44:16;1.70;;;0.57;;
9906;SDS011;4992;51.628;6.664;2023-04-01T02:46:42;1.03;;;0.50;;
9906;SDS011;4992;51.628;6.664;2023-04-01T02:49:08;0.57;;;0.40;;
9906;SDS011;4992;51.628;6.664;2023-04-01T02:51:34;2.20;;;0.60;;
9906;SDS011;4992;51.628;6.664;2023-04-01T02:54:00;4.03;;;0.80;;
9906;SDS011;4992;51.628;6.664;2023-04-01T02:56:26;2.30;;;0.80;;
9906;SDS011;4992;51.628;6.664;2023-04-01T02:58:53;3.40;;;1.03;;
9906;SDS011;4992;51.628;6.664;2023-04-01T03:01:19;6.83;;;1.83;;
9906;SDS011;4992;51.628;6.664;2023-04-01T03:03:45;3.17;;;1.43;;
9906;SDS011;4992;51.628;6.664;2023-04-01T03:06:12;6.00;;;2.30;;
9906;SDS011;4992;51.628;6.664;2023-04-01T03:08:38;7.83;;;1.40;;
9906;SDS011;4992;51.628;6.664;2023-04-01T03:11:04;4.80;;;1.77;;
9906;SDS011;4992;51.628;6.664;2023-04-01T03:13:30;6.77;;;2.13;;
9906;SDS011;4992;51.628;6.664;2023-04-01T03:15:56;4.70;;;2.07;;
9906;SDS011;4992;51.628;6.664;2023-04-01T03:18:22;4.40;;;1.83;;
9906;SDS011;4992;51.628;6.664;2023-04-01T03:20:48;8.77;;;2.17;;
9906;SDS011;4992;51.628;6.664;2023-04-01T03:23:14;7.30;;;2.73;;
9906;SDS011;4992;51.628;6.664;2023-04-01T03:25:42;4.73;;;1.97;;
9906;SDS011;4992;51.628;6.664;2023-04-01T03:28:08;4.13;;;2.47;;
9906;SDS011;4992;51.628;6.664;2023-04-01T03:30:34;6.37;;;2.70;;
9906;SDS011;4992;51.628;6.664;2023-04-01T03:33:00;8.37;;;2.90;;
9906;SDS011;4992;51.628;6.664;2023-04-01T03:35:27;6.07;;;2.80;;
9906;SDS011;4992;51.628;6.664;2023-04-01T03:37:53;5.77;;;2.97;;
9906;SDS011;4992;51.628;6.664;2023-04-01T03:40:19;6.80;;;3.50;;
9906;SDS011;4992;51.628;6.664;2023-04-01T03:42:46;10.07;;;3.53;;
9906;SDS011;4992;51.628;6.664;2023-04-01T03:45:12;6.63;;;2.90;;
9906;SDS011;4992;51.628;6.664;2023-04-01T03:47:38;8.30;;;3.83;;
9906;SDS011;4992;51.628;6.664;2023-04-01T03:50:05;5.90;;;3.20;;
9906;SDS011;4992;51.628;6.664;2023-04-01T03:52:31;9.97;;;3.13;;
9906;SDS011;4992;51.628;6.664;2023-04-01T03:54:57;7.90;;;3.20;;
9906;SDS011;4992;51.628;6.664;2023-04-01T03:57:23;6.37;;;3.60;;
9906;SDS011;4992;51.628;6.664;2023-04-01T03:59:49;11.57;;;4.07;;
9906;SDS011;4992;51.628;6.664;2023-04-01T04:02:15;9.07;;;4.20;;
9906;SDS011;4992;51.628;6.664;2023-04-01T04:04:41;7.60;;;4.07;;
9906;SDS011;4992;51.628;6.664;2023-04-01T04:07:07;8.20;;;4.33;;
9906;SDS011;4992;51.628;6.664;2023-04-01T04:09:33;7.90;;;4.40;;
9906;SDS011;4992;51.628;6.664;2023-04-01T04:12:00;9.13;;;4.13;;
9906;SDS011;4992;51.628;6.664;2023-04-01T04:14:26;4.73;;;3.90;;
9906;SDS011;4992;51.628;6.664;2023-04-01T04:16:52;8.50;;;4.40;;
9906;SDS011;4992;51.628;6.664;2023-04-01T04:19:18;8.00;;;3.87;;
9906;SDS011;4992;51.628;6.664;2023-04-01T04:21:44;5.00;;;4.00;;
9906;SDS011;4992;51.628;6.664;2023-04-01T04:24:10;4.60;;;4.10;;
9906;SDS011;4992;51.628;6.664;2023-04-01T04:26:36;5.87;;;4.87;;
9906;SDS011;4992;51.628;6.664;2023-04-01T04:29:02;6.83;;;4.80;;
9906;SDS011;4992;51.628;6.664;2023-04-01T04:31:28;4.73;;;4.30;;
9906;SDS011;4992;51.628;6.664;2023-04-01T04:33:54;5.83;;;5.00;;
9906;SDS011;4992;51.628;6.664;2023-04-01T04:36:21;5.80;;;4.63;;
9906;SDS011;4992;51.628;6.664;2023-04-01T04:38:47;6.90;;;5.50;;
9906;SDS011;4992;51.628;6.664;2023-04-01T04:41:13;7.07;;;4.73;;
9906;SDS011;4992;51.628;6.664;2023-04-01T04:43:40;6.23;;;4.90;;
9906;SDS011;4992;51.628;6.664;2023-04-01T04:46:06;5.77;;;4.80;;
9906;SDS011;4992;51.628;6.664;2023-04-01T04:48:33;5.40;;;4.90;;
9906;SDS011;4992;51.628;6.664;2023-04-01T04:50:59;9.63;;;5.60;;
9906;SDS011;4992;51.628;6.664;2023-04-01T04:53:25;7.93;;;5.43;;
9906;SDS011;4992;51.628;6.664;2023-04-01T04:55:51;5.70;;;4.80;;
9906;SDS011;4992;51.628;6.664;2023-04-01T04:58:18;6.80;;;5.43;;
9906;SDS011;4992;51.628;6.664;2023-04-01T05:00:44;11.93;;;6.30;;
9906;SDS011;4992;51.628;6.664;2023-04-01T05:03:11;10.03;;;5.90;;
9906;SDS011;4992;51.628;6.664;2023-04-01T05:05:37;12.27;;;7.40;;
9906;SDS011;4992;51.628;6.664;2023-04-01T05:08:03;15.63;;;8.10;;
9906;SDS011;4992;51.628;6.664;2023-04-01T05:10:29;12.87;;;7.53;;
9906;SDS011;4992;51.628;6.664;2023-04-01T05:12:56;14.63;;;7.77;;
9906;SDS011;4992;51.628;6.664;2023-04-01T05:15:22;16.27;;;8.23;;
9906;SDS011;4992;51.628;6.664;2023-04-01T05:17:48;15.17;;;8.80;;
9906;SDS011;4992;51.628;6.664;2023-04-01T05:20:14;14.57;;;9.10;;
9906;SDS011;4992;51.628;6.664;2023-04-01T05:22:41;11.80;;;8.93;;
9906;SDS011;4992;51.628;6.664;2023-04-01T05:25:07;13.30;;;9.23;;
9906;SDS011;4992;51.628;6.664;2023-04-01T05:27:33;12.63;;;9.53;;
9906;SDS011;4992;51.628;6.664;2023-04-01T05:29:59;12.73;;;9.33;;
9906;SDS011;4992;51.628;6.664;2023-04-01T05:32:25;9.93;;;9.00;;
9906;SDS011;4992;51.628;6.664;2023-04-01T05:34:51;9.30;;;8.40;;
9906;SDS011;4992;51.628;6.664;2023-04-01T05:37:17;9.20;;;8.17;;
9906;SDS011;4992;51.628;6.664;2023-04-01T05:39:43;9.23;;;8.33;;
9906;SDS011;4992;51.628;6.664;2023-04-01T05:42:09;8.63;;;7.77;;
9906;SDS011;4992;51.628;6.664;2023-04-01T05:44:35;9.00;;;8.10;;
9906;SDS011;4992;51.628;6.664;2023-04-01T05:47:02;9.00;;;8.17;;
9906;SDS011;4992;51.628;6.664;2023-04-01T05:49:28;9.10;;;8.30;;
9906;SDS011;4992;51.628;6.664;2023-04-01T05:51:54;9.57;;;8.60;;
9906;SDS011;4992;51.628;6.664;2023-04-01T05:54:21;8.13;;;7.33;;
9906;SDS011;4992;51.628;6.664;2023-04-01T05:56:47;8.63;;;7.73;;
9906;SDS011;4992;51.628;6.664;2023-04-01T05:59:13;9.90;;;8.07;;
9906;SDS011;4992;51.628;6.664;2023-04-01T06:01:39;8.33;;;7.47;;
9906;SDS011;4992;51.628;6.664;2023-04-01T06:04:05;10.90;;;8.23;;
9906;SDS011;4992;51.628;6.664;2023-04-01T06:06:32;11.60;;;9.07;;
9906;SDS011;4992;51.628;6.664;2023-04-01T06:09:01;9.33;;;7.70;;
9906;SDS011;4992;51.628;6.664;2023-04-01T06:11:39;10.20;;;8.20;;
9906;SDS011;4992;51.628;6.664;2023-04-01T06:14:10;9.63;;;7.80;;
9906;SDS011;4992;51.628;6.664;2023-04-01T06:19:18;7.93;;;7.13;;
9906;SDS011;4992;51.628;6.664;2023-04-01T06:24:19;7.87;;;7.17;;
9906;SDS011;4992;51.628;6.664;2023-04-01T06:26:52;9.37;;;7.53;;
9906;SDS011;4992;51.628;6.664;2023-04-01T06:29:44;8.80;;;7.90;;
9906;SDS011;4992;51.628;6.664;2023-04-01T06:38:00;7.73;;;6.03;;
9906;SDS011;4992;51.628;6.664;2023-04-01T06:40:58;8.17;;;7.00;;
9906;SDS011;4992;51.628;6.664;2023-04-01T06:48:09;8.67;;;7.20;;
9906;SDS011;4992;51.628;6.664;2023-04-01T06:50:44;7.57;;;6.57;;
9906;SDS011;4992;51.628;6.664;2023-04-01T06:53:19;6.83;;;6.23;;
9906;SDS011;4992;51.628;6.664;2023-04-01T06:55:48;7.20;;;6.57;;
9906;SDS011;4992;51.628;6.664;2023-04-01T07:00:51;6.87;;;6.27;;
9906;SDS011;4992;51.628;6.664;2023-04-01T07:03:21;7.13;;;5.73;;
9906;SDS011;4992;51.628;6.664;2023-04-01T07:05:48;5.70;;;5.20;;
9906;SDS011;4992;51.628;6.664;2023-04-01T07:08:20;6.73;;;5.73;;
9906;SDS011;4992;51.628;6.664;2023-04-01T07:10:53;6.40;;;5.80;;
9906;SDS011;4992;51.628;6.664;2023-04-01T07:13:27;6.83;;;6.17;;
9906;SDS011;4992;51.628;6.664;2023-04-01T07:15:56;6.80;;;6.17;;
9906;SDS011;4992;51.628;6.664;2023-04-01T07:23:48;7.37;;;6.20;;
9906;SDS011;4992;51.628;6.664;2023-04-01T07:26:19;7.80;;;6.90;;
9906;SDS011;4992;51.628;6.664;2023-04-01T07:28:48;8.10;;;6.57;;
9906;SDS011;4992;51.628;6.664;2023-04-01T07:31:22;9.53;;;7.20;;
9906;SDS011;4992;51.628;6.664;2023-04-01T07:36:39;7.40;;;6.30;;
9906;SDS011;4992;51.628;6.664;2023-04-01T07:41:43;8.77;;;6.97;;
9906;SDS011;4992;51.628;6.664;2023-04-01T07:44:21;10.30;;;7.33;;
9906;SDS011;4992;51.628;6.664;2023-04-01T07:46:53;9.00;;;7.07;;
9906;SDS011;4992;51.628;6.664;2023-04-01T07:49:32;11.47;;;7.83;;
9906;SDS011;4992;51.628;6.664;2023-04-01T07:52:04;10.57;;;8.27;;
9906;SDS011;4992;51.628;6.664;2023-04-01T07:54:44;14.60;;;8.60;;
9906;SDS011;4992;51.628;6.664;2023-04-01T07:57:19;12.13;;;8.93;;
9906;SDS011;4992;51.628;6.664;2023-04-01T07:59:59;12.60;;;8.53;;
9906;SDS011;4992;51.628;6.664;2023-04-01T08:07:36;15.10;;;10.33;;
9906;SDS011;4992;51.628;6.664;2023-04-01T08:15:00;15.33;;;9.33;;
9906;SDS011;4992;51.628;6.664;2023-04-01T08:22:51;11.63;;;8.37;;
9906;SDS011;4992;51.628;6.664;2023-04-01T08:25:21;11.77;;;8.60;;
9906;SDS011;4992;51.628;6.664;2023-04-01T08:27:57;10.70;;;8.37;;
9906;SDS011;4992;51.628;6.664;2023-04-01T08:33:27;14.57;;;7.77;;
9906;SDS011;4992;51.628;6.664;2023-04-01T08:35:55;13.63;;;9.00;;
9906;SDS011;4992;51.628;6.664;2023-04-01T08:38:24;11.80;;;8.90;;
9906;SDS011;4992;51.628;6.664;2023-04-01T08:40:59;13.17;;;9.27;;
9906;SDS011;4992;51.628;6.664;2023-04-01T08:48:28;13.33;;;9.27;;
9906;SDS011;4992;51.628;6.664;2023-04-01T09:01:58;13.40;;;9.00;;
9906;SDS011;4992;51.628;6.664;2023-04-01T09:04:42;13.07;;;8.70;;
9906;SDS011;4992;51.628;6.664;2023-04-01T09:12:38;10.63;;;7.40;;
9906;SDS011;4992;51.628;6.664;2023-04-01T09:17:51;8.90;;;6.70;;
9906;SDS011;4992;51.628;6.664;2023-04-01T09:23:00;9.43;;;6.57;;
9906;SDS011;4992;51.628;6.664;2023-04-01T09:25:48;8.67;;;6.73;;
9906;SDS011;4992;51.628;6.664;2023-04-01T09:28:20;8.27;;;6.22;;
9906;SDS011;4992;51.628;6.664;2023-04-01T09:31:05;9.23;;;7.00;;
9906;SDS011;4992;51.628;6.664;2023-04-01T09:34:00;9.07;;;6.80;;
9906;SDS011;4992;51.628;6.664;2023-04-01T09:36:43;9.60;;;6.65;;
9906;SDS011;4992;51.628;6.664;2023-04-01T09:42:06;8.63;;;6.57;;
9906;SDS011;4992;51.628;6.664;2023-04-01T09:45:16;7.22;;;5.70;;
9906;SDS011;4992;51.628;6.664;2023-04-01T09:47:28;6.22;;;5.28;;
9906;SDS011;4992;51.628;6.664;2023-04-01T09:52:36;7.13;;;5.35;;
9906;SDS011;4992;51.628;6.664;2023-04-01T10:00:50;7.20;;;5.65;;
9906;SDS011;4992;51.628;6.664;2023-04-01T10:10:45;8.15;;;6.45;;
9906;SDS011;4992;51.628;6.664;2023-04-01T10:16:19;10.48;;;7.75;;
9906;SDS011;4992;51.628;6.664;2023-04-01T10:19:08;8.85;;;6.70;;
9906;SDS011;4992;51.628;6.664;2023-04-01T10:24:42;10.32;;;7.50;;
9906;SDS011;4992;51.628;6.664;2023-04-01T10:27:16;10.15;;;7.28;;
9906;SDS011;4992;51.628;6.664;2023-04-01T10:35:20;7.63;;;6.10;;
9906;SDS011;4992;51.628;6.664;2023-04-01T10:45:47;8.70;;;6.25;;
9906;SDS011;4992;51.628;6.664;2023-04-01T10:48:31;9.48;;;7.13;;
9906;SDS011;4992;51.628;6.664;2023-04-01T10:51:11;11.88;;;7.90;;
9906;SDS011;4992;51.628;6.664;2023-04-01T10:53:46;10.35;;;8.00;;
9906;SDS011;4992;51.628;6.664;2023-04-01T11:15:02;9.27;;;7.13;;
9906;SDS011;4992;51.628;6.664;2023-04-01T11:23:18;13.35;;;7.80;;
9906;SDS011;4992;51.628;6.664;2023-04-01T11:30:58;11.80;;;8.20;;
9906;SDS011;4992;51.628;6.664;2023-04-01T11:33:38;11.00;;;7.68;;
9906;SDS011;4992;51.628;6.664;2023-04-01T11:36:16;9.70;;;7.70;;
9906;SDS011;4992;51.628;6.664;2023-04-01T11:41:33;12.05;;;8.07;;
9906;SDS011;4992;51.628;6.664;2023-04-01T11:51:34;10.55;;;7.78;;
9906;SDS011;4992;51.628;6.664;2023-04-01T11:56:34;9.60;;;6.90;;
9906;SDS011;4992;51.628;6.664;2023-04-01T12:12:48;8.40;;;5.65;;
9906;SDS011;4992;51.628;6.664;2023-04-01T12:15:25;6.90;;;5.85;;
9906;SDS011;4992;51.628;6.664;2023-04-01T12:21:07;10.07;;;5.70;;
9906;SDS011;4992;51.628;6.664;2023-04-01T12:23:51;9.02;;;5.85;;
9906;SDS011;4992;51.628;6.664;2023-04-01T12:29:05;11.85;;;6.15;;
9906;SDS011;4992;51.628;6.664;2023-04-01T12:44:49;8.73;;;7.32;;
9906;SDS011;4992;51.628;6.664;2023-04-01T12:55:34;11.52;;;7.35;;
9906;SDS011;4992;51.628;6.664;2023-04-01T13:00:45;8.50;;;6.35;;
9906;SDS011;4992;51.628;6.664;2023-04-01T13:05:55;8.13;;;6.05;;
9906;SDS011;4992;51.628;6.664;2023-04-01T13:08:35;7.68;;;5.50;;
9906;SDS011;4992;51.628;6.664;2023-04-01T13:16:14;8.65;;;6.50;;
9906;SDS011;4992;51.628;6.664;2023-04-01T13:19:02;9.80;;;6.97;;
9906;SDS011;4992;51.628;6.664;2023-04-01T13:21:36;9.70;;;6.67;;
9906;SDS011;4992;51.628;6.664;2023-04-01T13:24:13;9.35;;;6.80;;
9906;SDS011;4992;51.628;6.664;2023-04-01T13:29:39;8.50;;;6.80;;
9906;SDS011;4992;51.628;6.664;2023-04-01T13:37:38;9.93;;;8.27;;
9906;SDS011;4992;51.628;6.664;2023-04-01T13:40:27;10.60;;;7.63;;
9906;SDS011;4992;51.628;6.664;2023-04-01T13:42:57;10.65;;;7.88;;
9906;SDS011;4992;51.628;6.664;2023-04-01T13:45:38;10.15;;;7.97;;
9906;SDS011;4992;51.628;6.664;2023-04-01T13:50:54;10.73;;;8.35;;
9906;SDS011;4992;51.628;6.664;2023-04-01T13:53:31;9.45;;;8.20;;
9906;SDS011;4992;51.628;6.664;2023-04-01T14:06:56;15.48;;;10.48;;
9906;SDS011;4992;51.628;6.664;2023-04-01T14:19:48;11.93;;;9.45;;
9906;SDS011;4992;51.628;6.664;2023-04-01T14:22:28;13.43;;;9.63;;
9906;SDS011;4992;51.628;6.664;2023-04-01T14:37:55;11.18;;;9.98;;
9906;SDS011;4992;51.628;6.664;2023-04-01T14:45:55;9.75;;;8.75;;
9906;SDS011;4992;51.628;6.664;2023-04-01T14:48:25;8.40;;;7.60;;
9906;SDS011;4992;51.628;6.664;2023-04-01T14:50:54;8.32;;;7.43;;
9906;SDS011;4992;51.628;6.664;2023-04-01T14:53:31;8.38;;;6.90;;
9906;SDS011;4992;51.628;6.664;2023-04-01T14:55:59;6.93;;;6.13;;
9906;SDS011;4992;51.628;6.664;2023-04-01T14:58:44;7.47;;;5.32;;
9906;SDS011;4992;51.628;6.664;2023-04-01T15:01:26;7.13;;;5.72;;
9906;SDS011;4992;51.628;6.664;2023-04-01T15:09:27;7.32;;;6.47;;
9906;SDS011;4992;51.628;6.664;2023-04-01T15:12:03;7.15;;;6.45;;
9906;SDS011;4992;51.628;6.664;2023-04-01T15:14:44;7.15;;;6.45;;
9906;SDS011;4992;51.628;6.664;2023-04-01T15:17:34;6.38;;;5.68;;
9906;SDS011;4992;51.628;6.664;2023-04-01T15:22:43;6.80;;;6.05;;
9906;SDS011;4992;51.628;6.664;2023-04-01T15:35:39;6.38;;;5.78;;
9906;SDS011;4992;51.628;6.664;2023-04-01T15:43:41;6.60;;;6.00;;
9906;SDS011;4992;51.628;6.664;2023-04-01T15:46:11;9.00;;;6.10;;
9906;SDS011;4992;51.628;6.664;2023-04-01T15:53:44;6.45;;;5.82;;
9906;SDS011;4992;51.628;6.664;2023-04-01T15:56:18;8.05;;;6.00;;
9906;SDS011;4992;51.628;6.664;2023-04-01T16:01:49;9.43;;;6.82;;
9906;SDS011;4992;51.628;6.664;2023-04-01T16:04:23;7.65;;;6.85;;
9906;SDS011;4992;51.628;6.664;2023-04-01T16:09:53;7.70;;;5.97;;
9906;SDS011;4992;51.628;6.664;2023-04-01T16:15:09;8.23;;;6.35;;
9906;SDS011;4992;51.628;6.664;2023-04-01T16:23:18;6.95;;;5.90;;
9906;SDS011;4992;51.628;6.664;2023-04-01T16:25:49;6.10;;;5.20;;
9906;SDS011;4992;51.628;6.664;2023-04-01T16:28:27;6.40;;;5.70;;
9906;SDS011;4992;51.628;6.664;2023-04-01T16:30:57;6.32;;;5.72;;
9906;SDS011;4992;51.628;6.664;2023-04-01T16:33:39;7.25;;;6.15;;
9906;SDS011;4992;51.628;6.664;2023-04-01T16:44:24;7.47;;;6.68;;
9906;SDS011;4992;51.628;6.664;2023-04-01T16:46:53;8.68;;;6.03;;
9906;SDS011;4992;51.628;6.664;2023-04-01T16:59:36;6.30;;;5.70;;
9906;SDS011;4992;51.628;6.664;2023-04-01T17:02:07;6.45;;;5.38;;
9906;SDS011;4992;51.628;6.664;2023-04-01T17:04:44;6.28;;;5.10;;
9906;SDS011;4992;51.628;6.664;2023-04-01T17:13:16;6.35;;;5.40;;
9906;SDS011;4992;51.628;6.664;2023-04-01T17:21:03;3.90;;;3.60;;
9906;SDS011;4992;51.628;6.664;2023-04-01T17:39:01;4.00;;;3.70;;
9906;SDS011;4992;51.628;6.664;2023-04-01T17:41:51;7.30;;;3.95;;
9906;SDS011;4992;51.628;6.664;2023-04-01T17:44:26;4.40;;;4.00;;
9906;SDS011;4992;51.628;6.664;2023-04-01T17:49:44;5.47;;;4.97;;
9906;SDS011;4992;51.628;6.664;2023-04-01T17:59:49;5.30;;;4.35;;
9906;SDS011;4992;51.628;6.664;2023-04-01T18:02:21;5.32;;;4.82;;
9906;SDS011;4992;51.628;6.664;2023-04-01T18:10:17;10.15;;;9.15;;
9906;SDS011;4992;51.628;6.664;2023-04-01T18:17:47;6.43;;;5.82;;
9906;SDS011;4992;51.628;6.664;2023-04-01T18:20:20;4.18;;;3.78;;
9906;SDS011;4992;51.628;6.664;2023-04-01T18:27:49;3.35;;;2.97;;
9906;SDS011;4992;51.628;6.664;2023-04-01T18:35:29;3.03;;;2.60;;
9906;SDS011;4992;51.628;6.664;2023-04-01T18:38:00;2.63;;;2.42;;
9906;SDS011;4992;51.628;6.664;2023-04-01T18:40:37;3.63;;;3.33;;
9906;SDS011;4992;51.628;6.664;2023-04-01T18:45:54;3.60;;;3.40;;
9906;SDS011;4992;51.628;6.664;2023-04-01T18:50:53;3.50;;;3.30;;
9906;SDS011;4992;51.628;6.664;2023-04-01T18:55:54;3.27;;;3.00;;
9906;SDS011;4992;51.628;6.664;2023-04-01T19:01:04;2.97;;;2.78;;
9906;SDS011;4992;51.628;6.664;2023-04-01T19:06:20;2.87;;;2.67;;
9906;SDS011;4992;51.628;6.664;2023-04-01T19:08:48;3.13;;;2.83;;
9906;SDS011;4992;51.628;6.664;2023-04-01T19:11:30;2.63;;;2.43;;
9906;SDS011;4992;51.628;6.664;2023-04-01T19:14:16;3.17;;;2.97;;
9906;SDS011;4992;51.628;6.664;2023-04-01T19:16:59;2.83;;;2.63;;
9906;SDS011;4992;51.628;6.664;2023-04-01T19:25:15;2.50;;;2.40;;
9906;SDS011;4992;51.628;6.664;2023-04-01T19:35:47;2.73;;;2.53;;
9906;SDS011;4992;51.628;6.664;2023-04-01T19:38:58;3.40;;;3.10;;
9906;SDS011;4992;51.628;6.664;2023-04-01T19:41:23;4.93;;;4.23;;
9906;SDS011;4992;51.628;6.664;2023-04-01T19:44:01;4.07;;;3.77;;
9906;SDS011;4992;51.628;6.664;2023-04-01T19:51:49;3.27;;;3.07;;
9906;SDS011;4992;51.628;6.664;2023-04-01T19:56:58;5.10;;;3.10;;
9906;SDS011;4992;51.628;6.664;2023-04-01T19:59:41;2.97;;;2.77;;
9906;SDS011;4992;51.628;6.664;2023-04-01T20:04:49;2.43;;;2.33;;
9906;SDS011;4992;51.628;6.664;2023-04-01T20:12:16;3.70;;;2.60;;
9906;SDS011;4992;51.628;6.664;2023-04-01T20:14:54;2.57;;;2.47;;
9906;SDS011;4992;51.628;6.664;2023-04-01T20:17:22;3.13;;;2.93;;
9906;SDS011;4992;51.628;6.664;2023-04-01T20:25:14;2.60;;;2.40;;
9906;SDS011;4992;51.628;6.664;2023-04-01T20:27:44;2.60;;;2.30;;
9906;SDS011;4992;51.628;6.664;2023-04-01T20:30:21;2.33;;;2.23;;
9906;SDS011;4992;51.628;6.664;2023-04-01T20:40:41;2.70;;;2.43;;
9906;SDS011;4992;51.628;6.664;2023-04-01T20:45:49;2.97;;;2.77;;
9906;SDS011;4992;51.628;6.664;2023-04-01T20:50:51;2.83;;;2.63;;
9906;SDS011;4992;51.628;6.664;2023-04-01T20:53:23;2.90;;;2.70;;
9906;SDS011;4992;51.628;6.664;2023-04-01T20:56:09;2.70;;;2.50;;
9906;SDS011;4992;51.628;6.664;2023-04-01T20:58:46;3.40;;;3.20;;
9906;SDS011;4992;51.628;6.664;2023-04-01T21:01:28;3.43;;;2.90;;
9906;SDS011;4992;51.628;6.664;2023-04-01T21:03:58;3.10;;;2.53;;
9906;SDS011;4992;51.628;6.664;2023-04-01T21:16:41;2.90;;;2.70;;
9906;SDS011;4992;51.628;6.664;2023-04-01T21:22:13;3.00;;;2.80;;
9906;SDS011;4992;51.628;6.664;2023-04-01T21:24:55;3.07;;;2.87;;
9906;SDS011;4992;51.628;6.664;2023-04-01T21:32:35;3.50;;;3.30;;
9906;SDS011;4992;51.628;6.664;2023-04-01T21:35:20;5.57;;;3.60;;
9906;SDS011;4992;51.628;6.664;2023-04-01T21:40:24;3.77;;;3.53;;
9906;SDS011;4992;51.628;6.664;2023-04-01T21:43:00;3.87;;;3.50;;
9906;SDS011;4992;51.628;6.664;2023-04-01T21:48:27;4.27;;;3.97;;
9906;SDS011;4992;51.628;6.664;2023-04-01T21:53:44;4.07;;;3.77;;
9906;SDS011;4992;51.628;6.664;2023-04-01T21:59:09;4.73;;;4.43;;
9906;SDS011;4992;51.628;6.664;2023-04-01T22:01:53;4.40;;;4.10;;
9906;SDS011;4992;51.628;6.664;2023-04-01T22:06:56;4.80;;;4.40;;
9906;SDS011;4992;51.628;6.664;2023-04-01T22:09:50;4.80;;;4.47;;
9906;SDS011;4992;51.628;6.664;2023-04-01T22:12:27;4.77;;;4.03;;
9906;SDS011;4992;51.628;6.664;2023-04-01T22:15:03;4.57;;;4.27;;
9906;SDS011;4992;51.628;6.664;2023-04-01T22:17:32;4.47;;;4.17;;
9906;SDS011;4992;51.628;6.664;2023-04-01T22:20:06;4.50;;;4.10;;
9906;SDS011;4992;51.628;6.664;2023-04-01T22:22:57;4.53;;;4.23;;
9906;SDS011;4992;51.628;6.664;2023-04-01T22:25:37;4.27;;;3.97;;
9906;SDS011;4992;51.628;6.664;2023-04-01T22:30:41;3.63;;;3.37;;
9906;SDS011;4992;51.628;6.664;2023-04-01T22:35:54;3.80;;;3.50;;
9906;SDS011;4992;51.628;6.664;2023-04-01T22:38:30;3.60;;;3.40;;
9906;SDS011;4992;51.628;6.664;2023-04-01T22:43:42;3.90;;;3.70;;
9906;SDS011;4992;51.628;6.664;2023-04-01T22:48:45;3.90;;;3.60;;
9906;SDS011;4992;51.628;6.664;2023-04-01T22:51:24;3.53;;;3.30;;
9906;SDS011;4992;51.628;6.664;2023-04-01T22:54:14;3.57;;;3.37;;
9906;SDS011;4992;51.628;6.664;2023-04-01T22:56:55;3.50;;;3.27;;
9906;SDS011;4992;51.628;6.664;2023-04-01T23:02:07;3.20;;;3.00;;
9906;SDS011;4992;51.628;6.664;2023-04-01T23:04:37;3.20;;;3.00;;
9906;SDS011;4992;51.628;6.664;2023-04-01T23:07:05;2.97;;;2.77;;
9906;SDS011;4992;51.628;6.664;2023-04-01T23:09:41;3.17;;;2.97;;
9906;SDS011;4992;51.628;6.664;2023-04-01T23:12:09;2.70;;;2.60;;
9906;SDS011;4992;51.628;6.664;2023-04-01T23:14:49;2.53;;;2.33;;
9906;SDS011;4992;51.628;6.664;2023-04-01T23:17:25;2.03;;;1.93;;
9906;SDS011;4992;51.628;6.664;2023-04-01T23:19:56;2.53;;;2.30;;
9906;SDS011;4992;51.628;6.664;2023-04-01T23:22:36;2.03;;;1.73;;
9906;SDS011;4992;51.628;6.664;2023-04-01T23:25:15;2.20;;;2.00;;
9906;SDS011;4992;51.628;6.664;2023-04-01T23:27:45;2.20;;;2.10;;
9906;SDS011;4992;51.628;6.664;2023-04-01T23:33:09;1.90;;;1.80;;
9906;SDS011;4992;51.628;6.664;2023-04-01T23:35:45;2.23;;;1.93;;
9906;SDS011;4992;51.628;6.664;2023-04-01T23:38:12;2.47;;;2.27;;
9906;SDS011;4992;51.628;6.664;2023-04-01T23:40:38;2.40;;;2.27;;
9906;SDS011;4992;51.628;6.664;2023-04-01T23:43:12;2.03;;;1.93;;
9906;SDS011;4992;51.628;6.664;2023-04-01T23:45:38;1.90;;;1.80;;
9906;SDS011;4992;51.628;6.664;2023-04-01T23:48:07;2.13;;;2.03;;
9906;SDS011;4992;51.628;6.664;2023-04-01T23:50:36;2.10;;;2.00;;
9906;SDS011;4992;51.628;6.664;2023-04-01T23:53:21;3.00;;;2.00;;
9906;SDS011;4992;51.628;6.664;2023-04-01T23:55:49;2.27;;;2.17;;
9906;SDS011;4992;51.628;6.664;2023-04-01T23:58:23;2.10;;;2.00;;
